sensor_id;sensor_type;location;lat;lon;timestamp;P1;durP1;ratioP1;P2;durP2;ratioP2
59856;SDS011;45733;52.668;6.860;2023-12-20T00:01:00;2.55;;;2.45;;
59856;SDS011;45733;52.668;6.860;2023-12-20T00:03:26;2.72;;;2.63;;
59856;SDS011;45733;52.668;6.860;2023-12-20T00:05:51;2.92;;;2.83;;
59856;SDS011;45733;52.668;6.860;2023-12-20T00:08:17;2.83;;;2.72;;
59856;SDS011;45733;52.668;6.860;2023-12-20T00:10:43;2.60;;;2.50;;
59856;SDS011;45733;52.668;6.860;2023-12-20T00:13:12;2.90;;;2.80;;
59856;SDS011;45733;52.668;6.860;2023-12-20T00:15:38;3.15;;;2.95;;
59856;SDS011;45733;52.668;6.860;2023-12-20T00:18:03;2.70;;;2.60;;
59856;SDS011;45733;52.668;6.860;2023-12-20T00:20:30;2.75;;;2.65;;
59856;SDS011;45733;52.668;6.860;2023-12-20T00:22:56;2.30;;;2.20;;
59856;SDS011;45733;52.668;6.860;2023-12-20T00:25:25;2.78;;;2.67;;
59856;SDS011;45733;52.668;6.860;2023-12-20T00:27:51;2.72;;;2.63;;
59856;SDS011;45733;52.668;6.860;2023-12-20T00:30:17;2.60;;;2.50;;
59856;SDS011;45733;52.668;6.860;2023-12-20T00:32:43;2.40;;;2.30;;
59856;SDS011;45733;52.668;6.860;2023-12-20T00:35:12;2.97;;;2.85;;
59856;SDS011;45733;52.668;6.860;2023-12-20T00:37:38;3.33;;;3.13;;
59856;SDS011;45733;52.668;6.860;2023-12-20T00:40:06;2.80;;;2.70;;
59856;SDS011;45733;52.668;6.860;2023-12-20T00:42:32;3.15;;;2.95;;
59856;SDS011;45733;52.668;6.860;2023-12-20T00:44:58;3.10;;;2.92;;
59856;SDS011;45733;52.668;6.860;2023-12-20T00:47:25;2.72;;;2.63;;
59856;SDS011;45733;52.668;6.860;2023-12-20T00:49:51;2.63;;;2.53;;
59856;SDS011;45733;52.668;6.860;2023-12-20T00:52:17;2.75;;;2.65;;
59856;SDS011;45733;52.668;6.860;2023-12-20T00:54:43;2.50;;;2.40;;
59856;SDS011;45733;52.668;6.860;2023-12-20T00:57:09;2.78;;;2.67;;
59856;SDS011;45733;52.668;6.860;2023-12-20T00:59:35;3.08;;;2.92;;
59856;SDS011;45733;52.668;6.860;2023-12-20T01:02:01;2.92;;;2.83;;
59856;SDS011;45733;52.668;6.860;2023-12-20T01:04:27;3.15;;;2.95;;
59856;SDS011;45733;52.668;6.860;2023-12-20T01:06:53;2.90;;;2.80;;
59856;SDS011;45733;52.668;6.860;2023-12-20T01:09:18;3.40;;;3.20;;
59856;SDS011;45733;52.668;6.860;2023-12-20T01:11:44;3.20;;;3.00;;
59856;SDS011;45733;52.668;6.860;2023-12-20T01:14:11;3.20;;;3.00;;
59856;SDS011;45733;52.668;6.860;2023-12-20T01:16:37;3.20;;;3.00;;
59856;SDS011;45733;52.668;6.860;2023-12-20T01:19:03;3.40;;;3.20;;
59856;SDS011;45733;52.668;6.860;2023-12-20T01:21:29;3.30;;;3.10;;
59856;SDS011;45733;52.668;6.860;2023-12-20T01:23:55;4.00;;;3.80;;
59856;SDS011;45733;52.668;6.860;2023-12-20T01:26:20;3.40;;;3.20;;
59856;SDS011;45733;52.668;6.860;2023-12-20T01:28:46;3.65;;;3.45;;
59856;SDS011;45733;52.668;6.860;2023-12-20T01:31:12;3.97;;;3.78;;
59856;SDS011;45733;52.668;6.860;2023-12-20T01:33:38;3.33;;;3.13;;
59856;SDS011;45733;52.668;6.860;2023-12-20T01:36:04;3.17;;;2.97;;
59856;SDS011;45733;52.668;6.860;2023-12-20T01:38:29;3.38;;;3.17;;
59856;SDS011;45733;52.668;6.860;2023-12-20T01:40:55;4.00;;;3.80;;
59856;SDS011;45733;52.668;6.860;2023-12-20T01:43:21;3.47;;;3.28;;
59856;SDS011;45733;52.668;6.860;2023-12-20T01:45:47;3.28;;;3.08;;
59856;SDS011;45733;52.668;6.860;2023-12-20T01:48:13;3.63;;;3.42;;
59856;SDS011;45733;52.668;6.860;2023-12-20T01:50:41;3.50;;;3.30;;
59856;SDS011;45733;52.668;6.860;2023-12-20T01:53:08;3.58;;;3.38;;
59856;SDS011;45733;52.668;6.860;2023-12-20T01:55:38;4.05;;;3.85;;
59856;SDS011;45733;52.668;6.860;2023-12-20T01:58:06;3.97;;;3.78;;
59856;SDS011;45733;52.668;6.860;2023-12-20T02:00:33;4.00;;;3.80;;
59856;SDS011;45733;52.668;6.860;2023-12-20T02:03:03;4.05;;;3.85;;
59856;SDS011;45733;52.668;6.860;2023-12-20T02:05:30;3.60;;;3.40;;
59856;SDS011;45733;52.668;6.860;2023-12-20T02:07:57;3.67;;;3.47;;
59856;SDS011;45733;52.668;6.860;2023-12-20T02:10:23;3.83;;;3.63;;
59856;SDS011;45733;52.668;6.860;2023-12-20T02:12:49;3.83;;;3.63;;
59856;SDS011;45733;52.668;6.860;2023-12-20T02:15:17;3.83;;;3.63;;
59856;SDS011;45733;52.668;6.860;2023-12-20T02:17:43;3.97;;;3.78;;
59856;SDS011;45733;52.668;6.860;2023-12-20T02:20:10;4.00;;;3.80;;
59856;SDS011;45733;52.668;6.860;2023-12-20T02:22:36;3.85;;;3.65;;
59856;SDS011;45733;52.668;6.860;2023-12-20T02:25:02;3.45;;;3.25;;
59856;SDS011;45733;52.668;6.860;2023-12-20T02:27:27;4.10;;;3.90;;
59856;SDS011;45733;52.668;6.860;2023-12-20T02:29:54;3.25;;;3.05;;
59856;SDS011;45733;52.668;6.860;2023-12-20T02:32:20;3.65;;;3.45;;
59856;SDS011;45733;52.668;6.860;2023-12-20T02:34:48;3.90;;;3.70;;
59856;SDS011;45733;52.668;6.860;2023-12-20T02:37:14;3.60;;;3.40;;
59856;SDS011;45733;52.668;6.860;2023-12-20T02:39:39;3.28;;;3.08;;
59856;SDS011;45733;52.668;6.860;2023-12-20T02:42:05;3.88;;;3.67;;
59856;SDS011;45733;52.668;6.860;2023-12-20T02:44:34;3.88;;;3.67;;
59856;SDS011;45733;52.668;6.860;2023-12-20T02:47:00;3.85;;;3.65;;
59856;SDS011;45733;52.668;6.860;2023-12-20T02:49:25;3.92;;;3.72;;
59856;SDS011;45733;52.668;6.860;2023-12-20T02:51:51;3.85;;;3.65;;
59856;SDS011;45733;52.668;6.860;2023-12-20T02:54:17;3.92;;;3.72;;
59856;SDS011;45733;52.668;6.860;2023-12-20T02:56:42;4.03;;;3.83;;
59856;SDS011;45733;52.668;6.860;2023-12-20T02:59:08;4.15;;;3.95;;
59856;SDS011;45733;52.668;6.860;2023-12-20T03:01:34;3.90;;;3.70;;
59856;SDS011;45733;52.668;6.860;2023-12-20T03:04:00;3.78;;;3.58;;
59856;SDS011;45733;52.668;6.860;2023-12-20T03:06:26;4.05;;;3.85;;
59856;SDS011;45733;52.668;6.860;2023-12-20T03:08:52;3.78;;;3.58;;
59856;SDS011;45733;52.668;6.860;2023-12-20T03:11:18;3.90;;;3.70;;
59856;SDS011;45733;52.668;6.860;2023-12-20T03:13:43;3.55;;;3.35;;
59856;SDS011;45733;52.668;6.860;2023-12-20T03:16:12;3.45;;;3.25;;
59856;SDS011;45733;52.668;6.860;2023-12-20T03:18:38;3.53;;;3.33;;
59856;SDS011;45733;52.668;6.860;2023-12-20T03:21:05;3.22;;;3.03;;
59856;SDS011;45733;52.668;6.860;2023-12-20T03:23:31;3.42;;;3.22;;
59856;SDS011;45733;52.668;6.860;2023-12-20T03:25:58;3.05;;;2.90;;
59856;SDS011;45733;52.668;6.860;2023-12-20T03:28:25;3.22;;;3.03;;
59856;SDS011;45733;52.668;6.860;2023-12-20T03:30:51;3.25;;;3.05;;
59856;SDS011;45733;52.668;6.860;2023-12-20T03:33:17;3.40;;;3.20;;
59856;SDS011;45733;52.668;6.860;2023-12-20T03:35:43;3.45;;;3.25;;
59856;SDS011;45733;52.668;6.860;2023-12-20T03:38:08;3.40;;;3.20;;
59856;SDS011;45733;52.668;6.860;2023-12-20T03:40:34;2.97;;;2.88;;
59856;SDS011;45733;52.668;6.860;2023-12-20T03:43:00;3.10;;;2.95;;
59856;SDS011;45733;52.668;6.860;2023-12-20T03:45:26;3.30;;;3.10;;
59856;SDS011;45733;52.668;6.860;2023-12-20T03:47:51;3.95;;;3.75;;
59856;SDS011;45733;52.668;6.860;2023-12-20T03:50:24;3.30;;;3.10;;
59856;SDS011;45733;52.668;6.860;2023-12-20T03:52:51;3.50;;;3.30;;
59856;SDS011;45733;52.668;6.860;2023-12-20T03:55:17;3.53;;;3.33;;
59856;SDS011;45733;52.668;6.860;2023-12-20T03:57:42;2.80;;;2.70;;
59856;SDS011;45733;52.668;6.860;2023-12-20T04:00:08;3.30;;;3.10;;
59856;SDS011;45733;52.668;6.860;2023-12-20T04:02:38;3.50;;;3.30;;
59856;SDS011;45733;52.668;6.860;2023-12-20T04:05:05;3.00;;;2.90;;
59856;SDS011;45733;52.668;6.860;2023-12-20T04:07:31;3.08;;;2.90;;
59856;SDS011;45733;52.668;6.860;2023-12-20T04:09:57;3.40;;;3.20;;
59856;SDS011;45733;52.668;6.860;2023-12-20T04:12:22;2.83;;;2.72;;
59856;SDS011;45733;52.668;6.860;2023-12-20T04:14:48;3.40;;;3.20;;
59856;SDS011;45733;52.668;6.860;2023-12-20T04:17:14;3.53;;;3.33;;
59856;SDS011;45733;52.668;6.860;2023-12-20T04:19:41;3.55;;;3.35;;
59856;SDS011;45733;52.668;6.860;2023-12-20T04:22:07;3.28;;;3.08;;
59856;SDS011;45733;52.668;6.860;2023-12-20T04:24:33;2.80;;;2.70;;
59856;SDS011;45733;52.668;6.860;2023-12-20T04:26:58;3.40;;;3.20;;
59856;SDS011;45733;52.668;6.860;2023-12-20T04:29:24;2.92;;;2.83;;
59856;SDS011;45733;52.668;6.860;2023-12-20T04:31:50;3.03;;;2.90;;
59856;SDS011;45733;52.668;6.860;2023-12-20T04:34:17;3.38;;;3.17;;
59856;SDS011;45733;52.668;6.860;2023-12-20T04:36:42;3.17;;;2.97;;
59856;SDS011;45733;52.668;6.860;2023-12-20T04:39:08;3.38;;;3.17;;
59856;SDS011;45733;52.668;6.860;2023-12-20T04:41:34;3.50;;;3.30;;
59856;SDS011;45733;52.668;6.860;2023-12-20T04:44:00;3.05;;;2.92;;
59856;SDS011;45733;52.668;6.860;2023-12-20T04:46:26;2.95;;;2.85;;
59856;SDS011;45733;52.668;6.860;2023-12-20T04:48:52;3.08;;;2.92;;
59856;SDS011;45733;52.668;6.860;2023-12-20T04:51:17;3.85;;;3.65;;
59856;SDS011;45733;52.668;6.860;2023-12-20T04:53:43;3.55;;;3.35;;
59856;SDS011;45733;52.668;6.860;2023-12-20T04:56:09;3.38;;;3.17;;
59856;SDS011;45733;52.668;6.860;2023-12-20T04:58:34;3.28;;;3.08;;
59856;SDS011;45733;52.668;6.860;2023-12-20T05:01:00;3.30;;;3.10;;
59856;SDS011;45733;52.668;6.860;2023-12-20T05:03:26;2.72;;;2.63;;
59856;SDS011;45733;52.668;6.860;2023-12-20T05:05:51;3.45;;;3.25;;
59856;SDS011;45733;52.668;6.860;2023-12-20T05:08:17;3.05;;;2.90;;
59856;SDS011;45733;52.668;6.860;2023-12-20T05:10:43;3.28;;;3.08;;
59856;SDS011;45733;52.668;6.860;2023-12-20T05:13:08;3.50;;;3.30;;
59856;SDS011;45733;52.668;6.860;2023-12-20T05:15:34;3.22;;;3.03;;
59856;SDS011;45733;52.668;6.860;2023-12-20T05:18:00;3.20;;;3.00;;
59856;SDS011;45733;52.668;6.860;2023-12-20T05:20:25;3.40;;;3.20;;
59856;SDS011;45733;52.668;6.860;2023-12-20T05:22:51;3.60;;;3.40;;
59856;SDS011;45733;52.668;6.860;2023-12-20T05:25:17;3.40;;;3.20;;
59856;SDS011;45733;52.668;6.860;2023-12-20T05:27:43;3.30;;;3.10;;
59856;SDS011;45733;52.668;6.860;2023-12-20T05:30:08;3.40;;;3.20;;
59856;SDS011;45733;52.668;6.860;2023-12-20T05:32:34;3.30;;;3.10;;
59856;SDS011;45733;52.668;6.860;2023-12-20T05:35:00;3.10;;;2.97;;
59856;SDS011;45733;52.668;6.860;2023-12-20T05:37:26;3.05;;;2.95;;
59856;SDS011;45733;52.668;6.860;2023-12-20T05:39:52;3.28;;;3.08;;
59856;SDS011;45733;52.668;6.860;2023-12-20T05:42:17;3.38;;;3.17;;
59856;SDS011;45733;52.668;6.860;2023-12-20T05:44:43;2.60;;;2.50;;
59856;SDS011;45733;52.668;6.860;2023-12-20T05:47:09;3.17;;;2.97;;
59856;SDS011;45733;52.668;6.860;2023-12-20T05:49:34;2.72;;;2.63;;
59856;SDS011;45733;52.668;6.860;2023-12-20T05:52:00;2.63;;;2.53;;
59856;SDS011;45733;52.668;6.860;2023-12-20T05:54:26;3.78;;;3.58;;
59856;SDS011;45733;52.668;6.860;2023-12-20T05:56:51;3.47;;;3.28;;
59856;SDS011;45733;52.668;6.860;2023-12-20T05:59:17;3.20;;;3.00;;
59856;SDS011;45733;52.668;6.860;2023-12-20T06:01:43;2.95;;;2.85;;
59856;SDS011;45733;52.668;6.860;2023-12-20T06:04:08;2.85;;;2.75;;
59856;SDS011;45733;52.668;6.860;2023-12-20T06:06:34;3.08;;;2.92;;
59856;SDS011;45733;52.668;6.860;2023-12-20T06:09:06;2.70;;;2.60;;
59856;SDS011;45733;52.668;6.860;2023-12-20T06:11:31;2.88;;;2.78;;
59856;SDS011;45733;52.668;6.860;2023-12-20T06:13:57;2.83;;;2.72;;
59856;SDS011;45733;52.668;6.860;2023-12-20T06:16:23;2.70;;;2.60;;
59856;SDS011;45733;52.668;6.860;2023-12-20T06:18:48;3.13;;;2.92;;
59856;SDS011;45733;52.668;6.860;2023-12-20T06:21:14;3.28;;;3.08;;
59856;SDS011;45733;52.668;6.860;2023-12-20T06:23:40;3.08;;;2.90;;
59856;SDS011;45733;52.668;6.860;2023-12-20T06:26:06;3.17;;;2.97;;
59856;SDS011;45733;52.668;6.860;2023-12-20T06:28:31;3.00;;;2.90;;
59856;SDS011;45733;52.668;6.860;2023-12-20T06:30:57;3.08;;;2.92;;
59856;SDS011;45733;52.668;6.860;2023-12-20T06:33:23;2.85;;;2.75;;
59856;SDS011;45733;52.668;6.860;2023-12-20T06:35:49;3.38;;;3.17;;
59856;SDS011;45733;52.668;6.860;2023-12-20T06:38:15;2.85;;;2.75;;
59856;SDS011;45733;52.668;6.860;2023-12-20T06:40:41;3.15;;;2.97;;
59856;SDS011;45733;52.668;6.860;2023-12-20T06:43:07;2.50;;;2.40;;
59856;SDS011;45733;52.668;6.860;2023-12-20T06:45:33;3.22;;;3.05;;
59856;SDS011;45733;52.668;6.860;2023-12-20T06:47:59;3.33;;;3.13;;
59856;SDS011;45733;52.668;6.860;2023-12-20T06:50:25;2.53;;;2.42;;
59856;SDS011;45733;52.668;6.860;2023-12-20T06:52:51;2.67;;;2.58;;
59856;SDS011;45733;52.668;6.860;2023-12-20T06:55:17;3.45;;;3.25;;
59856;SDS011;45733;52.668;6.860;2023-12-20T06:57:43;3.13;;;2.97;;
59856;SDS011;45733;52.668;6.860;2023-12-20T07:00:10;2.78;;;2.67;;
59856;SDS011;45733;52.668;6.860;2023-12-20T07:02:36;3.38;;;3.17;;
59856;SDS011;45733;52.668;6.860;2023-12-20T07:05:02;3.15;;;2.97;;
59856;SDS011;45733;52.668;6.860;2023-12-20T07:07:28;3.20;;;3.03;;
59856;SDS011;45733;52.668;6.860;2023-12-20T07:09:54;2.65;;;2.55;;
59856;SDS011;45733;52.668;6.860;2023-12-20T07:12:19;3.25;;;3.08;;
59856;SDS011;45733;52.668;6.860;2023-12-20T07:14:46;2.92;;;2.83;;
59856;SDS011;45733;52.668;6.860;2023-12-20T07:17:12;3.45;;;3.25;;
59856;SDS011;45733;52.668;6.860;2023-12-20T07:19:40;3.20;;;3.05;;
59856;SDS011;45733;52.668;6.860;2023-12-20T07:22:06;3.28;;;3.08;;
59856;SDS011;45733;52.668;6.860;2023-12-20T07:24:32;3.00;;;2.88;;
59856;SDS011;45733;52.668;6.860;2023-12-20T07:26:59;2.65;;;2.55;;
59856;SDS011;45733;52.668;6.860;2023-12-20T07:29:25;2.75;;;2.65;;
59856;SDS011;45733;52.668;6.860;2023-12-20T07:31:51;2.97;;;2.88;;
59856;SDS011;45733;52.668;6.860;2023-12-20T07:34:18;2.90;;;2.80;;
59856;SDS011;45733;52.668;6.860;2023-12-20T07:36:45;2.40;;;2.30;;
59856;SDS011;45733;52.668;6.860;2023-12-20T07:39:11;2.53;;;2.42;;
59856;SDS011;45733;52.668;6.860;2023-12-20T07:41:36;2.28;;;2.17;;
59856;SDS011;45733;52.668;6.860;2023-12-20T07:44:03;2.80;;;2.70;;
59856;SDS011;45733;52.668;6.860;2023-12-20T07:46:29;2.65;;;2.55;;
59856;SDS011;45733;52.668;6.860;2023-12-20T07:48:55;2.70;;;2.60;;
59856;SDS011;45733;52.668;6.860;2023-12-20T07:51:21;2.88;;;2.78;;
59856;SDS011;45733;52.668;6.860;2023-12-20T07:53:47;2.83;;;2.72;;
59856;SDS011;45733;52.668;6.860;2023-12-20T07:56:13;3.05;;;2.92;;
59856;SDS011;45733;52.668;6.860;2023-12-20T07:58:40;2.70;;;2.60;;
59856;SDS011;45733;52.668;6.860;2023-12-20T08:01:06;2.63;;;2.53;;
59856;SDS011;45733;52.668;6.860;2023-12-20T08:03:31;2.35;;;2.25;;
59856;SDS011;45733;52.668;6.860;2023-12-20T08:05:57;2.97;;;2.88;;
59856;SDS011;45733;52.668;6.860;2023-12-20T08:08:24;2.97;;;2.88;;
59856;SDS011;45733;52.668;6.860;2023-12-20T08:10:50;2.63;;;2.53;;
59856;SDS011;45733;52.668;6.860;2023-12-20T08:13:16;2.38;;;2.28;;
59856;SDS011;45733;52.668;6.860;2023-12-20T08:15:41;2.65;;;2.55;;
59856;SDS011;45733;52.668;6.860;2023-12-20T08:18:07;2.90;;;2.80;;
59856;SDS011;45733;52.668;6.860;2023-12-20T08:20:33;2.35;;;2.25;;
59856;SDS011;45733;52.668;6.860;2023-12-20T08:22:58;2.38;;;2.28;;
59856;SDS011;45733;52.668;6.860;2023-12-20T08:25:24;3.17;;;3.05;;
59856;SDS011;45733;52.668;6.860;2023-12-20T08:27:50;2.53;;;2.42;;
59856;SDS011;45733;52.668;6.860;2023-12-20T08:30:15;3.08;;;2.95;;
59856;SDS011;45733;52.668;6.860;2023-12-20T08:32:45;3.08;;;2.97;;
59856;SDS011;45733;52.668;6.860;2023-12-20T08:35:11;2.65;;;2.55;;
59856;SDS011;45733;52.668;6.860;2023-12-20T08:37:37;2.50;;;2.40;;
59856;SDS011;45733;52.668;6.860;2023-12-20T08:40:02;3.00;;;2.90;;
59856;SDS011;45733;52.668;6.860;2023-12-20T08:42:28;2.50;;;2.40;;
59856;SDS011;45733;52.668;6.860;2023-12-20T08:44:56;3.03;;;2.92;;
59856;SDS011;45733;52.668;6.860;2023-12-20T08:47:23;2.33;;;2.22;;
59856;SDS011;45733;52.668;6.860;2023-12-20T08:49:49;2.60;;;2.50;;
59856;SDS011;45733;52.668;6.860;2023-12-20T08:52:15;2.60;;;2.50;;
59856;SDS011;45733;52.668;6.860;2023-12-20T08:54:41;3.20;;;3.08;;
59856;SDS011;45733;52.668;6.860;2023-12-20T08:57:07;3.28;;;3.13;;
59856;SDS011;45733;52.668;6.860;2023-12-20T08:59:33;2.63;;;2.53;;
59856;SDS011;45733;52.668;6.860;2023-12-20T09:01:58;2.67;;;2.58;;
59856;SDS011;45733;52.668;6.860;2023-12-20T09:04:24;2.55;;;2.45;;
59856;SDS011;45733;52.668;6.860;2023-12-20T09:06:50;2.55;;;2.45;;
59856;SDS011;45733;52.668;6.860;2023-12-20T09:09:16;2.75;;;2.65;;
59856;SDS011;45733;52.668;6.860;2023-12-20T09:11:42;3.17;;;3.05;;
59856;SDS011;45733;52.668;6.860;2023-12-20T09:14:07;2.53;;;2.42;;
59856;SDS011;45733;52.668;6.860;2023-12-20T09:16:33;3.15;;;3.03;;
59856;SDS011;45733;52.668;6.860;2023-12-20T09:18:59;3.35;;;3.17;;
59856;SDS011;45733;52.668;6.860;2023-12-20T09:21:24;2.47;;;2.38;;
59856;SDS011;45733;52.668;6.860;2023-12-20T09:23:50;2.50;;;2.40;;
59856;SDS011;45733;52.668;6.860;2023-12-20T09:26:16;3.25;;;3.10;;
59856;SDS011;45733;52.668;6.860;2023-12-20T09:28:42;3.20;;;3.08;;
59856;SDS011;45733;52.668;6.860;2023-12-20T09:31:07;2.53;;;2.42;;
59856;SDS011;45733;52.668;6.860;2023-12-20T09:33:36;2.65;;;2.55;;
59856;SDS011;45733;52.668;6.860;2023-12-20T09:36:01;2.65;;;2.55;;
59856;SDS011;45733;52.668;6.860;2023-12-20T09:38:27;2.45;;;2.35;;
59856;SDS011;45733;52.668;6.860;2023-12-20T09:40:53;2.67;;;2.58;;
59856;SDS011;45733;52.668;6.860;2023-12-20T09:43:20;2.58;;;2.47;;
59856;SDS011;45733;52.668;6.860;2023-12-20T09:45:50;2.65;;;2.55;;
59856;SDS011;45733;52.668;6.860;2023-12-20T09:48:18;3.20;;;3.08;;
59856;SDS011;45733;52.668;6.860;2023-12-20T09:50:45;3.17;;;3.05;;
59856;SDS011;45733;52.668;6.860;2023-12-20T09:53:12;3.47;;;3.28;;
59856;SDS011;45733;52.668;6.860;2023-12-20T09:55:41;2.63;;;2.53;;
59856;SDS011;45733;52.668;6.860;2023-12-20T09:58:07;2.47;;;2.38;;
59856;SDS011;45733;52.668;6.860;2023-12-20T10:00:34;2.53;;;2.42;;
59856;SDS011;45733;52.668;6.860;2023-12-20T10:03:00;2.80;;;2.70;;
59856;SDS011;45733;52.668;6.860;2023-12-20T10:05:30;3.63;;;3.42;;
59856;SDS011;45733;52.668;6.860;2023-12-20T10:07:57;3.78;;;3.58;;
59856;SDS011;45733;52.668;6.860;2023-12-20T10:10:24;3.97;;;3.78;;
59856;SDS011;45733;52.668;6.860;2023-12-20T10:13:06;3.15;;;3.05;;
59856;SDS011;45733;52.668;6.860;2023-12-20T10:15:34;4.35;;;4.15;;
59856;SDS011;45733;52.668;6.860;2023-12-20T10:18:00;3.70;;;3.50;;
59856;SDS011;45733;52.668;6.860;2023-12-20T10:20:27;3.30;;;3.15;;
59856;SDS011;45733;52.668;6.860;2023-12-20T10:22:54;3.95;;;3.75;;
59856;SDS011;45733;52.668;6.860;2023-12-20T10:25:21;4.15;;;3.95;;
59856;SDS011;45733;52.668;6.860;2023-12-20T10:27:46;4.50;;;4.30;;
59856;SDS011;45733;52.668;6.860;2023-12-20T10:30:13;3.15;;;3.05;;
59856;SDS011;45733;52.668;6.860;2023-12-20T10:32:39;3.08;;;2.97;;
59856;SDS011;45733;52.668;6.860;2023-12-20T10:35:06;2.80;;;2.70;;
59856;SDS011;45733;52.668;6.860;2023-12-20T10:37:35;3.38;;;3.17;;
59856;SDS011;45733;52.668;6.860;2023-12-20T10:40:03;3.53;;;3.33;;
59856;SDS011;45733;52.668;6.860;2023-12-20T10:42:31;2.55;;;2.45;;
59856;SDS011;45733;52.668;6.860;2023-12-20T10:44:59;2.25;;;2.15;;
59856;SDS011;45733;52.668;6.860;2023-12-20T10:47:28;2.40;;;2.30;;
59856;SDS011;45733;52.668;6.860;2023-12-20T10:49:56;2.95;;;2.85;;
59856;SDS011;45733;52.668;6.860;2023-12-20T10:52:24;2.80;;;2.70;;
59856;SDS011;45733;52.668;6.860;2023-12-20T10:54:52;2.33;;;2.22;;
59856;SDS011;45733;52.668;6.860;2023-12-20T10:57:18;2.88;;;2.78;;
59856;SDS011;45733;52.668;6.860;2023-12-20T10:59:44;2.33;;;2.22;;
59856;SDS011;45733;52.668;6.860;2023-12-20T11:02:14;2.33;;;2.22;;
59856;SDS011;45733;52.668;6.860;2023-12-20T11:07:50;2.65;;;2.55;;
59856;SDS011;45733;52.668;6.860;2023-12-20T11:10:23;2.42;;;2.33;;
59856;SDS011;45733;52.668;6.860;2023-12-20T11:12:59;2.65;;;2.55;;
59856;SDS011;45733;52.668;6.860;2023-12-20T11:15:35;2.60;;;2.50;;
59856;SDS011;45733;52.668;6.860;2023-12-20T11:18:01;2.67;;;2.58;;
59856;SDS011;45733;52.668;6.860;2023-12-20T11:20:38;3.03;;;2.90;;
59856;SDS011;45733;52.668;6.860;2023-12-20T11:23:06;2.88;;;2.78;;
59856;SDS011;45733;52.668;6.860;2023-12-20T11:25:52;2.75;;;2.65;;
59856;SDS011;45733;52.668;6.860;2023-12-20T11:28:23;2.60;;;2.50;;
59856;SDS011;45733;52.668;6.860;2023-12-20T11:30:54;2.75;;;2.65;;
59856;SDS011;45733;52.668;6.860;2023-12-20T11:33:21;3.22;;;3.05;;
59856;SDS011;45733;52.668;6.860;2023-12-20T11:35:51;2.70;;;2.60;;
59856;SDS011;45733;52.668;6.860;2023-12-20T11:38:20;2.72;;;2.63;;
59856;SDS011;45733;52.668;6.860;2023-12-20T11:40:48;2.60;;;2.50;;
59856;SDS011;45733;52.668;6.860;2023-12-20T11:43:30;3.17;;;3.00;;
59856;SDS011;45733;52.668;6.860;2023-12-20T11:45:56;2.60;;;2.50;;
59856;SDS011;45733;52.668;6.860;2023-12-20T11:48:32;2.75;;;2.65;;
59856;SDS011;45733;52.668;6.860;2023-12-20T11:50:59;3.35;;;3.15;;
59856;SDS011;45733;52.668;6.860;2023-12-20T11:53:25;3.35;;;3.15;;
59856;SDS011;45733;52.668;6.860;2023-12-20T11:55:51;3.25;;;3.08;;
59856;SDS011;45733;52.668;6.860;2023-12-20T11:58:16;2.72;;;2.63;;
59856;SDS011;45733;52.668;6.860;2023-12-20T12:00:42;2.47;;;2.38;;
59856;SDS011;45733;52.668;6.860;2023-12-20T12:03:09;2.55;;;2.45;;
59856;SDS011;45733;52.668;6.860;2023-12-20T12:05:35;2.72;;;2.63;;
59856;SDS011;45733;52.668;6.860;2023-12-20T12:08:01;3.10;;;2.97;;
59856;SDS011;45733;52.668;6.860;2023-12-20T12:10:30;3.25;;;3.08;;
59856;SDS011;45733;52.668;6.860;2023-12-20T12:12:56;2.65;;;2.55;;
59856;SDS011;45733;52.668;6.860;2023-12-20T12:15:22;3.22;;;3.05;;
59856;SDS011;45733;52.668;6.860;2023-12-20T12:17:54;3.08;;;2.97;;
59856;SDS011;45733;52.668;6.860;2023-12-20T12:20:21;2.80;;;2.70;;
59856;SDS011;45733;52.668;6.860;2023-12-20T12:22:57;3.33;;;3.15;;
59856;SDS011;45733;52.668;6.860;2023-12-20T12:25:30;2.53;;;2.42;;
59856;SDS011;45733;52.668;6.860;2023-12-20T12:27:56;3.03;;;2.90;;
59856;SDS011;45733;52.668;6.860;2023-12-20T12:30:23;2.58;;;2.47;;
59856;SDS011;45733;52.668;6.860;2023-12-20T12:32:50;2.70;;;2.60;;
59856;SDS011;45733;52.668;6.860;2023-12-20T12:35:17;2.45;;;2.35;;
59856;SDS011;45733;52.668;6.860;2023-12-20T12:37:43;2.55;;;2.45;;
59856;SDS011;45733;52.668;6.860;2023-12-20T12:40:09;2.60;;;2.50;;
59856;SDS011;45733;52.668;6.860;2023-12-20T12:42:36;2.60;;;2.50;;
59856;SDS011;45733;52.668;6.860;2023-12-20T12:45:02;3.28;;;3.13;;
59856;SDS011;45733;52.668;6.860;2023-12-20T12:47:29;3.03;;;2.92;;
59856;SDS011;45733;52.668;6.860;2023-12-20T12:49:55;3.20;;;3.05;;
59856;SDS011;45733;52.668;6.860;2023-12-20T12:52:21;3.15;;;3.03;;
59856;SDS011;45733;52.668;6.860;2023-12-20T12:54:48;3.10;;;2.97;;
59856;SDS011;45733;52.668;6.860;2023-12-20T12:57:14;3.08;;;2.95;;
59856;SDS011;45733;52.668;6.860;2023-12-20T12:59:41;2.67;;;2.58;;
59856;SDS011;45733;52.668;6.860;2023-12-20T13:02:07;2.60;;;2.50;;
59856;SDS011;45733;52.668;6.860;2023-12-20T13:04:33;2.60;;;2.50;;
59856;SDS011;45733;52.668;6.860;2023-12-20T13:06:59;2.47;;;2.38;;
59856;SDS011;45733;52.668;6.860;2023-12-20T13:09:25;2.40;;;2.30;;
59856;SDS011;45733;52.668;6.860;2023-12-20T13:11:50;2.60;;;2.50;;
59856;SDS011;45733;52.668;6.860;2023-12-20T13:14:16;3.20;;;3.05;;
59856;SDS011;45733;52.668;6.860;2023-12-20T13:16:42;2.70;;;2.60;;
59856;SDS011;45733;52.668;6.860;2023-12-20T13:19:08;2.55;;;2.45;;
59856;SDS011;45733;52.668;6.860;2023-12-20T13:21:35;2.75;;;2.65;;
59856;SDS011;45733;52.668;6.860;2023-12-20T13:24:01;3.25;;;3.08;;
59856;SDS011;45733;52.668;6.860;2023-12-20T13:26:26;2.72;;;2.63;;
59856;SDS011;45733;52.668;6.860;2023-12-20T13:28:53;3.08;;;2.95;;
59856;SDS011;45733;52.668;6.860;2023-12-20T13:31:19;3.25;;;3.08;;
59856;SDS011;45733;52.668;6.860;2023-12-20T13:33:45;2.70;;;2.60;;
59856;SDS011;45733;52.668;6.860;2023-12-20T13:36:11;2.67;;;2.58;;
59856;SDS011;45733;52.668;6.860;2023-12-20T13:38:37;2.65;;;2.55;;
59856;SDS011;45733;52.668;6.860;2023-12-20T13:41:03;3.20;;;3.00;;
59856;SDS011;45733;52.668;6.860;2023-12-20T13:43:30;3.22;;;3.05;;
59856;SDS011;45733;52.668;6.860;2023-12-20T13:46:03;2.80;;;2.70;;
59856;SDS011;45733;52.668;6.860;2023-12-20T13:48:29;3.17;;;2.97;;
59856;SDS011;45733;52.668;6.860;2023-12-20T13:50:54;2.78;;;2.67;;
59856;SDS011;45733;52.668;6.860;2023-12-20T13:53:20;3.05;;;2.95;;
59856;SDS011;45733;52.668;6.860;2023-12-20T13:55:46;2.63;;;2.53;;
59856;SDS011;45733;52.668;6.860;2023-12-20T13:58:12;3.28;;;3.08;;
59856;SDS011;45733;52.668;6.860;2023-12-20T14:00:37;3.30;;;3.10;;
59856;SDS011;45733;52.668;6.860;2023-12-20T14:03:04;3.25;;;3.05;;
59856;SDS011;45733;52.668;6.860;2023-12-20T14:05:29;3.28;;;3.08;;
59856;SDS011;45733;52.668;6.860;2023-12-20T14:07:56;2.92;;;2.83;;
59856;SDS011;45733;52.668;6.860;2023-12-20T14:10:25;3.15;;;2.95;;
59856;SDS011;45733;52.668;6.860;2023-12-20T14:12:52;2.85;;;2.75;;
59856;SDS011;45733;52.668;6.860;2023-12-20T14:15:18;3.05;;;2.95;;
59856;SDS011;45733;52.668;6.860;2023-12-20T14:17:44;2.70;;;2.60;;
59856;SDS011;45733;52.668;6.860;2023-12-20T14:20:10;2.92;;;2.83;;
59856;SDS011;45733;52.668;6.860;2023-12-20T14:22:39;3.00;;;2.90;;
59856;SDS011;45733;52.668;6.860;2023-12-20T14:25:10;3.50;;;3.30;;
59856;SDS011;45733;52.668;6.860;2023-12-20T14:27:37;2.85;;;2.75;;
59856;SDS011;45733;52.668;6.860;2023-12-20T14:30:04;2.78;;;2.67;;
59856;SDS011;45733;52.668;6.860;2023-12-20T14:32:31;3.20;;;3.00;;
59856;SDS011;45733;52.668;6.860;2023-12-20T14:34:57;2.65;;;2.55;;
59856;SDS011;45733;52.668;6.860;2023-12-20T14:37:23;2.80;;;2.70;;
59856;SDS011;45733;52.668;6.860;2023-12-20T14:39:48;3.17;;;2.97;;
59856;SDS011;45733;52.668;6.860;2023-12-20T14:42:14;2.75;;;2.65;;
59856;SDS011;45733;52.668;6.860;2023-12-20T14:44:40;3.42;;;3.22;;
59856;SDS011;45733;52.668;6.860;2023-12-20T14:47:06;3.22;;;3.03;;